Frobisher, Canada
Current Conditions -  °F | °C
As of 4:00 AM on Monday 26 Jan 2015 (Local Time) from CYEN Reporting Station
Clear Clear  
Wind Chill: 27°   Ceiling: Unl
Heat Index: 36°   Visibility: 15mi
Dew Point: 30°   Wind: 14mph
Humidity: 81%   Direction: 280°W
Pressure: 29.82"   Gusts: NA
Location:  49.2°N, 102.42°W
Report Text: CYEN 261000Z 28012KT 15SM SKC 02/M01 A2982 RMK SLP121
Loading
Personal Weather Stations






























Interactive Weather Map New forecast layout! Learn more

10-Day Weather Forecast

Advertisements
Track Severe Weather on mobile